Time;durP1;ratioP1;P1;durP2;ratioP2;P2;SDS_P1;SDS_P2;PMS_P1;PMS_P2;Temp;Humidity;BMP_temperature;BMP_pressure;BME280_temperature;BME280_humidity;BME280_pressure;Samples;Min_cycle;Max_cycle;Signal;HPM_P1;HPM_P2
2023/07/29 00:00:43;;;;;;;10.73;3.40;;;15.20;99.90;;;;;;2058789;28;20230;-83
2023/07/29 00:01:45;;;;;;;16.27;3.30;;;15.20;99.90;;;;;;2062882;28;20232;-83
2023/07/29 00:02:45;;;;;;;10.57;3.70;;;15.10;99.90;;;;;;2068838;28;20229;-83
2023/07/29 00:03:46;;;;;;;15.00;4.07;;;15.00;99.90;;;;;;2071590;28;20287;-84
2023/07/29 00:04:47;;;;;;;122.40;8.80;;;15.10;99.90;;;;;;2063264;28;20264;-83
2023/07/29 00:05:48;;;;;;;96.77;6.63;;;15.00;99.90;;;;;;2055644;28;20231;-83
2023/07/29 00:06:48;;;;;;;37.45;4.50;;;15.00;99.90;;;;;;2062894;28;20298;-82
2023/07/29 00:07:49;;;;;;;11.47;3.63;;;15.00;99.90;;;;;;2067024;28;20241;-84
2023/07/29 00:08:50;;;;;;;7.77;3.20;;;15.10;99.90;;;;;;2059298;28;20241;-82
2023/07/29 00:09:51;;;;;;;3.90;2.90;;;15.00;99.90;;;;;;2059296;28;20929;-83
2023/07/29 00:10:52;;;;;;;7.20;2.90;;;15.00;99.90;;;;;;2077727;28;20263;-82
2023/07/29 00:11:53;;;;;;;7.55;2.60;;;14.90;99.90;;;;;;2074446;28;20236;-83
2023/07/29 00:12:54;;;;;;;5.70;3.00;;;14.90;99.90;;;;;;2058284;28;20266;-82
2023/07/29 00:13:55;;;;;;;3.07;2.60;;;14.80;99.90;;;;;;2065968;28;20237;-83
2023/07/29 00:14:55;;;;;;;7.40;2.87;;;14.80;99.90;;;;;;2067301;28;20726;-83
2023/07/29 00:15:56;;;;;;;9.33;2.73;;;14.70;99.90;;;;;;2074639;28;20228;-83
2023/07/29 00:16:57;;;;;;;9.83;2.87;;;14.80;99.90;;;;;;2069053;28;20249;-82
2023/07/29 00:17:57;;;;;;;11.50;3.00;;;14.70;99.90;;;;;;2062101;28;20232;-82
2023/07/29 00:18:58;;;;;;;13.80;3.20;;;14.80;99.90;;;;;;2067999;28;21138;-82
2023/07/29 00:19:59;;;;;;;9.13;3.10;;;14.80;99.90;;;;;;2071728;28;20197;-83
2023/07/29 00:20:59;;;;;;;20.87;3.10;;;14.70;99.90;;;;;;2077302;28;20677;-83
2023/07/29 00:22:00;;;;;;;15.23;3.40;;;14.60;99.90;;;;;;2079019;28;20267;-82
2023/07/29 00:23:02;;;;;;;6.60;2.80;;;14.60;99.90;;;;;;2070825;28;20221;-83
2023/07/29 00:24:03;;;;;;;13.82;3.08;;;14.60;99.90;;;;;;2072053;28;20220;-81
2023/07/29 00:25:04;;;;;;;11.67;3.03;;;14.50;99.90;;;;;;2080100;28;20189;-81
2023/07/29 00:26:05;;;;;;;8.23;2.67;;;14.60;99.90;;;;;;2079923;28;20252;-82
2023/07/29 00:27:05;;;;;;;6.83;2.80;;;14.70;99.90;;;;;;2070305;28;20190;-82
2023/07/29 00:28:06;;;;;;;3.13;2.53;;;14.60;99.90;;;;;;2061867;28;20197;-82
2023/07/29 00:29:07;;;;;;;2.20;1.90;;;14.60;99.90;;;;;;2069955;28;20271;-82
2023/07/29 00:30:08;;;;;;;3.97;2.00;;;14.60;99.90;;;;;;2060841;28;20263;-83
2023/07/29 00:31:09;;;;;;;2.45;2.25;;;14.70;99.90;;;;;;2052030;28;20275;-82
2023/07/29 00:32:09;;;;;;;2.03;1.87;;;14.70;99.90;;;;;;2063019;28;20179;-83
2023/07/29 00:33:10;;;;;;;1.50;1.40;;;14.60;99.90;;;;;;2072296;28;20716;-82
2023/07/29 00:34:11;;;;;;;2.07;1.70;;;14.60;99.90;;;;;;2064773;28;20736;-83
2023/07/29 00:35:12;;;;;;;2.13;1.60;;;14.40;99.90;;;;;;2068884;28;20190;-83
2023/07/29 00:36:13;;;;;;;1.50;1.40;;;14.40;99.90;;;;;;2069030;28;20195;-82
2023/07/29 00:37:14;;;;;;;1.60;1.50;;;14.40;99.90;;;;;;2069712;28;20249;-83
2023/07/29 00:38:14;;;;;;;2.40;1.57;;;14.40;99.90;;;;;;2069463;28;20182;-82
2023/07/29 00:39:15;;;;;;;2.20;1.77;;;14.40;99.90;;;;;;2072751;28;20236;-84
2023/07/29 00:40:20;;;;;;;1.50;1.40;;;14.50;99.90;;;;;;2069795;28;20268;-82
2023/07/29 00:41:22;;;;;;;3.72;2.38;;;14.40;99.90;;;;;;2072950;28;20240;-83
2023/07/29 00:42:23;;;;;;;2.15;1.52;;;14.40;99.90;;;;;;2069879;28;20240;-83
2023/07/29 00:43:24;;;;;;;1.40;1.30;;;14.40;99.90;;;;;;2072540;28;20232;-83
2023/07/29 00:44:24;;;;;;;1.50;1.40;;;14.40;99.90;;;;;;2070367;28;20229;-86
2023/07/29 00:45:27;;;;;;;1.60;1.47;;;14.50;99.90;;;;;;2076629;28;20239;-83
2023/07/29 00:46:29;;;;;;;1.67;1.58;;;14.50;99.90;;;;;;2073988;28;20337;-83
2023/07/29 00:47:29;;;;;;;1.65;1.55;;;14.50;99.90;;;;;;2069598;28;20722;-82
2023/07/29 00:48:30;;;;;;;2.57;1.73;;;14.40;99.90;;;;;;2070521;28;20241;-83
2023/07/29 00:49:31;;;;;;;2.20;1.70;;;14.40;99.90;;;;;;2069320;28;20237;-82
2023/07/29 00:50:32;;;;;;;3.43;1.70;;;14.30;99.90;;;;;;2069929;28;20236;-82
2023/07/29 00:51:33;;;;;;;1.48;1.38;;;14.40;99.90;;;;;;2064467;28;20238;-82
2023/07/29 00:52:34;;;;;;;2.47;1.60;;;14.30;99.90;;;;;;2061600;28;20230;-83
2023/07/29 00:53:35;;;;;;;2.00;1.80;;;14.20;99.90;;;;;;2064614;28;20256;-83
2023/07/29 00:54:35;;;;;;;1.60;1.50;;;14.10;99.90;;;;;;2070723;28;20229;-82
2023/07/29 00:55:38;;;;;;;1.40;1.30;;;14.10;99.90;;;;;;2070933;28;20233;-83
2023/07/29 00:56:39;;;;;;;2.05;1.58;;;14.10;99.90;;;;;;2071036;28;20312;-82
2023/07/29 00:57:42;;;;;;;1.70;1.60;;;14.20;99.90;;;;;;2069867;28;20229;-83
2023/07/29 00:58:42;;;;;;;2.60;1.70;;;14.10;99.90;;;;;;2069000;28;20264;-83
2023/07/29 00:59:43;;;;;;;1.87;1.70;;;13.90;99.90;;;;;;2060113;28;20310;-82
2023/07/29 01:00:44;;;;;;;1.97;1.70;;;14.00;99.90;;;;;;2063432;28;21045;-82
2023/07/29 01:01:46;;;;;;;2.20;2.00;;;14.00;99.90;;;;;;2063410;28;20321;-81
2023/07/29 01:02:47;;;;;;;3.38;1.98;;;14.10;99.90;;;;;;2061267;28;20226;-82
2023/07/29 01:03:48;;;;;;;2.27;1.77;;;14.30;99.90;;;;;;2067753;28;20638;-83
2023/07/29 01:04:54;;;;;;;1.93;1.57;;;14.20;99.90;;;;;;2071832;28;20902;-82
2023/07/29 01:06:20;;;;;;;2.50;1.90;;;14.30;99.90;;;;;;2069984;28;20229;-83
2023/07/29 01:07:30;;;;;;;1.98;1.80;;;14.30;99.90;;;;;;2079495;28;20322;-83
2023/07/29 01:08:47;;;;;;;2.13;1.90;;;14.30;99.90;;;;;;2084032;28;20646;-81
2023/07/29 01:10:28;;;;;;;2.50;1.83;;;14.30;99.90;;;;;;2070239;28;20324;-83
2023/07/29 01:12:22;;;;;;;2.78;1.80;;;14.40;99.90;;;;;;2073419;28;20231;-83
2023/07/29 01:13:33;;;;;;;1.70;1.60;;;14.40;99.90;;;;;;2078350;28;20240;-82
2023/07/29 01:15:07;;;;;;;2.42;1.88;;;14.30;99.90;;;;;;2079729;28;20232;-82
2023/07/29 01:16:21;;;;;;;2.20;1.60;;;14.30;99.90;;;;;;2073967;28;20343;-82
2023/07/29 01:17:35;;;;;;;1.70;1.60;;;14.30;99.90;;;;;;2071376;28;20717;-82
2023/07/29 01:18:38;;;;;;;1.98;1.40;;;14.20;99.90;;;;;;2069299;28;20241;-82
2023/07/29 01:19:55;;;;;;;2.63;1.60;;;14.30;99.90;;;;;;2068428;28;20244;-83
2023/07/29 01:21:03;;;;;;;2.15;1.42;;;14.30;99.90;;;;;;2068648;28;20265;-83
2023/07/29 01:22:05;;;;;;;1.83;1.52;;;14.30;99.90;;;;;;2067879;28;20224;-82
2023/07/29 01:23:05;;;;;;;2.70;1.70;;;14.30;99.90;;;;;;2077234;28;20280;-82
2023/07/29 01:24:06;;;;;;;1.80;1.60;;;14.20;99.90;;;;;;2085030;28;20607;-82
2023/07/29 01:25:07;;;;;;;2.40;1.77;;;14.10;99.90;;;;;;2077062;28;20641;-83
2023/07/29 01:26:08;;;;;;;1.70;1.60;;;14.20;99.90;;;;;;2071970;28;20686;-82
2023/07/29 01:27:09;;;;;;;1.70;1.43;;;14.20;99.90;;;;;;2069382;28;20194;-83
2023/07/29 01:28:09;;;;;;;1.83;1.50;;;14.20;99.90;;;;;;2072863;28;20254;-82
2023/07/29 01:29:10;;;;;;;2.37;1.40;;;14.20;99.90;;;;;;2077701;28;20281;-82
2023/07/29 01:30:11;;;;;;;1.90;1.70;;;14.20;99.90;;;;;;2070668;28;20186;-82
2023/07/29 01:31:42;;;;;;;1.48;1.33;;;14.20;99.90;;;;;;2061860;28;20206;-82
2023/07/29 01:33:05;;;;;;;1.45;1.35;;;14.20;99.90;;;;;;2076911;28;20206;-82
2023/07/29 01:34:26;;;;;;;1.40;1.30;;;14.10;99.90;;;;;;2085491;28;20306;-82
2023/07/29 01:35:33;;;;;;;1.85;1.40;;;14.00;99.90;;;;;;2078162;28;20225;-84
2023/07/29 01:36:40;;;;;;;1.70;1.50;;;13.90;99.90;;;;;;2069037;28;20226;-83
2023/07/29 01:37:43;;;;;;;1.40;1.30;;;14.00;99.90;;;;;;2075973;28;20217;-84
2023/07/29 01:38:45;;;;;;;1.48;1.25;;;14.00;99.90;;;;;;2072999;28;20222;-84
2023/07/29 01:39:46;;;;;;;2.47;1.60;;;14.10;99.90;;;;;;2060961;28;20713;-82
2023/07/29 01:40:50;;;;;;;1.85;1.40;;;14.00;99.90;;;;;;2060558;28;20218;-84
2023/07/29 01:41:51;;;;;;;1.60;1.50;;;14.00;99.90;;;;;;2064126;28;20602;-84
2023/07/29 01:42:52;;;;;;;1.70;1.50;;;13.90;99.90;;;;;;2065474;28;20237;-83
2023/07/29 01:43:53;;;;;;;1.63;1.30;;;13.90;99.90;;;;;;2066656;28;20226;-84
2023/07/29 01:44:54;;;;;;;1.50;1.40;;;14.00;99.90;;;;;;2071103;28;20234;-84
2023/07/29 01:45:55;;;;;;;1.73;1.47;;;14.10;99.90;;;;;;2060698;28;20240;-83
2023/07/29 01:46:56;;;;;;;2.28;1.35;;;14.00;99.90;;;;;;2062332;28;20309;-83
2023/07/29 01:47:57;;;;;;;2.40;1.30;;;14.00;99.90;;;;;;2072394;28;20760;-84
2023/07/29 01:48:58;;;;;;;2.47;1.20;;;14.10;99.90;;;;;;2059124;28;21693;-83
2023/07/29 01:49:58;;;;;;;2.77;1.30;;;14.10;99.90;;;;;;2060688;28;20655;-84
2023/07/29 01:50:59;;;;;;;1.27;1.00;;;14.10;99.90;;;;;;2072030;28;20197;-83
2023/07/29 01:52:00;;;;;;;3.20;1.00;;;13.90;99.90;;;;;;2069993;28;20189;-82
2023/07/29 01:53:01;;;;;;;2.60;1.37;;;14.10;99.90;;;;;;2072244;28;20240;-83
2023/07/29 01:54:01;;;;;;;1.43;1.33;;;14.10;99.90;;;;;;2071746;28;20251;-83
2023/07/29 01:55:02;;;;;;;1.40;1.30;;;14.10;99.90;;;;;;2063772;28;20194;-83
2023/07/29 01:56:03;;;;;;;1.50;1.40;;;14.10;99.90;;;;;;2072187;28;20185;-83
2023/07/29 01:57:04;;;;;;;2.13;1.40;;;14.10;99.90;;;;;;2080161;28;20188;-84
2023/07/29 01:58:05;;;;;;;1.33;1.10;;;14.10;99.90;;;;;;2071849;28;20634;-85
2023/07/29 01:59:05;;;;;;;2.33;1.70;;;14.10;99.90;;;;;;2064755;28;20664;-84
2023/07/29 02:00:07;;;;;;;1.53;1.33;;;14.10;99.90;;;;;;2068721;28;20196;-84
2023/07/29 02:01:08;;;;;;;1.95;1.50;;;14.10;99.90;;;;;;2077759;28;20625;-84
2023/07/29 02:02:09;;;;;;;2.20;1.53;;;14.20;99.90;;;;;;2056619;28;20203;-84
2023/07/29 02:03:09;;;;;;;1.70;1.60;;;14.20;99.90;;;;;;2055781;28;20187;-83
2023/07/29 02:04:10;;;;;;;2.03;1.50;;;14.20;99.90;;;;;;2063515;28;20190;-83
2023/07/29 02:05:11;;;;;;;1.70;1.60;;;14.20;99.90;;;;;;2067953;28;20202;-84
2023/07/29 02:06:11;;;;;;;1.70;1.43;;;14.20;99.90;;;;;;2069444;28;20667;-84
2023/07/29 02:07:12;;;;;;;3.93;1.77;;;14.20;99.90;;;;;;2068220;28;20664;-83
2023/07/29 02:08:13;;;;;;;1.53;1.43;;;14.20;99.90;;;;;;2062669;28;20186;-84
2023/07/29 02:09:14;;;;;;;1.83;1.30;;;14.20;99.90;;;;;;2067949;28;20187;-84
2023/07/29 02:10:15;;;;;;;1.53;1.30;;;14.30;99.90;;;;;;2063369;28;20227;-84
2023/07/29 02:11:16;;;;;;;1.97;1.50;;;14.30;99.90;;;;;;2055163;28;20197;-84
2023/07/29 02:12:16;;;;;;;1.47;1.30;;;14.30;99.90;;;;;;2063614;28;20182;-83
2023/07/29 02:13:17;;;;;;;5.70;1.77;;;14.40;99.90;;;;;;2062913;28;20214;-84
2023/07/29 02:14:18;;;;;;;2.40;1.30;;;14.40;99.90;;;;;;2054252;28;20234;-84
2023/07/29 02:15:18;;;;;;;2.27;1.20;;;14.40;99.90;;;;;;2059878;28;20223;-83
2023/07/29 02:16:20;;;;;;;2.07;1.53;;;14.50;99.90;;;;;;2067794;28;20229;-83
2023/07/29 02:17:21;;;;;;;1.42;1.17;;;14.50;99.90;;;;;;2058895;28;20246;-83
2023/07/29 02:18:21;;;;;;;2.00;1.80;;;14.40;99.90;;;;;;2072198;28;20230;-84
2023/07/29 02:19:22;;;;;;;2.73;1.37;;;14.40;99.90;;;;;;2064703;28;20226;-83
2023/07/29 02:20:23;;;;;;;2.05;1.38;;;14.40;99.90;;;;;;2071380;28;20359;-84
2023/07/29 02:21:24;;;;;;;1.63;1.40;;;14.40;99.90;;;;;;2072301;28;20225;-84
2023/07/29 02:22:24;;;;;;;1.33;1.20;;;14.40;99.90;;;;;;2071364;28;20288;-83
2023/07/29 02:23:26;;;;;;;1.30;1.20;;;14.50;99.90;;;;;;2059790;28;20234;-84
2023/07/29 02:24:26;;;;;;;1.35;1.25;;;14.50;99.90;;;;;;2063201;28;20312;-83
2023/07/29 02:25:27;;;;;;;1.47;1.37;;;14.60;99.90;;;;;;2071327;28;20225;-84
2023/07/29 02:26:28;;;;;;;1.60;1.50;;;14.50;99.90;;;;;;2068182;28;20645;-84
2023/07/29 02:27:29;;;;;;;1.33;1.20;;;14.50;99.90;;;;;;2068543;28;20254;-83
2023/07/29 02:28:29;;;;;;;1.80;1.23;;;14.60;99.90;;;;;;2069695;28;20276;-84
2023/07/29 02:29:30;;;;;;;1.87;1.30;;;14.60;99.90;;;;;;2068795;28;20241;-83
2023/07/29 02:30:31;;;;;;;2.57;1.50;;;14.50;99.90;;;;;;2072075;28;20225;-84
2023/07/29 02:31:32;;;;;;;1.70;1.30;;;14.60;99.90;;;;;;2062220;28;20292;-84
2023/07/29 02:32:32;;;;;;;2.57;1.60;;;14.60;99.90;;;;;;2063562;28;20245;-83
2023/07/29 02:33:33;;;;;;;3.13;1.90;;;14.60;99.90;;;;;;2070536;28;20249;-84
2023/07/29 02:34:34;;;;;;;1.80;1.40;;;14.70;99.90;;;;;;2063409;28;20253;-84
2023/07/29 02:35:36;;;;;;;2.33;2.07;;;14.80;99.90;;;;;;2062924;28;20253;-84
2023/07/29 02:36:37;;;;;;;1.83;1.60;;;14.80;99.90;;;;;;2055636;28;20476;-82
2023/07/29 02:37:37;;;;;;;1.77;1.60;;;14.70;99.90;;;;;;2055542;28;20231;-84
2023/07/29 02:38:39;;;;;;;1.60;1.20;;;14.70;99.90;;;;;;2055810;28;20237;-81
2023/07/29 02:39:39;;;;;;;1.95;1.50;;;14.70;99.90;;;;;;2068247;28;20236;-83
2023/07/29 02:40:41;;;;;;;1.90;1.37;;;14.60;99.90;;;;;;2061590;28;20237;-83
2023/07/29 02:41:41;;;;;;;2.25;1.48;;;14.70;99.90;;;;;;2061086;28;20288;-83
2023/07/29 02:42:42;;;;;;;2.23;1.20;;;14.70;99.90;;;;;;2069468;28;20229;-83
2023/07/29 02:43:43;;;;;;;1.20;1.10;;;14.70;99.90;;;;;;2055016;28;20238;-84
2023/07/29 02:44:44;;;;;;;2.38;1.40;;;14.60;99.90;;;;;;2069994;28;20229;-83
2023/07/29 02:45:45;;;;;;;1.57;1.47;;;14.60;99.90;;;;;;2069552;28;20248;-83
2023/07/29 02:46:45;;;;;;;1.67;1.47;;;14.70;99.90;;;;;;2070251;28;20632;-83
2023/07/29 02:47:46;;;;;;;1.63;1.53;;;14.70;99.90;;;;;;2070005;28;20225;-84
2023/07/29 02:48:47;;;;;;;1.70;1.60;;;14.70;99.90;;;;;;2062570;28;21004;-83
2023/07/29 02:49:48;;;;;;;2.33;1.73;;;14.70;99.90;;;;;;2062200;28;20233;-83
2023/07/29 02:50:48;;;;;;;1.80;1.40;;;14.70;99.90;;;;;;2062864;28;20312;-83
2023/07/29 02:51:49;;;;;;;2.00;1.80;;;14.60;99.90;;;;;;2063408;28;20605;-82
2023/07/29 02:52:50;;;;;;;1.70;1.60;;;14.60;99.90;;;;;;2078789;28;20228;-83
2023/07/29 02:53:50;;;;;;;2.67;1.87;;;14.50;99.90;;;;;;2062806;28;20706;-83
2023/07/29 02:54:51;;;;;;;1.70;1.60;;;14.60;99.90;;;;;;2070937;28;20233;-83
2023/07/29 02:55:52;;;;;;;3.00;1.77;;;14.70;99.90;;;;;;2066315;28;20232;-84
2023/07/29 02:56:53;;;;;;;1.80;1.70;;;14.70;99.90;;;;;;2061328;28;20773;-83
2023/07/29 02:57:54;;;;;;;1.80;1.70;;;14.70;99.90;;;;;;2066831;28;20682;-84
2023/07/29 02:58:54;;;;;;;1.70;1.60;;;14.70;99.90;;;;;;2070301;28;20236;-83
2023/07/29 02:59:55;;;;;;;1.80;1.60;;;14.60;99.90;;;;;;2065646;28;20764;-84
2023/07/29 03:01:06;;;;;;;2.53;2.33;;;14.50;99.90;;;;;;2079380;28;20236;-84
2023/07/29 03:02:07;;;;;;;1.95;1.83;;;14.50;99.90;;;;;;2081928;28;20831;-83
2023/07/29 03:03:08;;;;;;;1.90;1.70;;;14.60;99.90;;;;;;2076197;28;20193;-82
2023/07/29 03:04:09;;;;;;;1.88;1.58;;;14.60;99.90;;;;;;2068765;28;20202;-84
2023/07/29 03:05:09;;;;;;;2.77;1.70;;;14.60;99.90;;;;;;2054896;28;20182;-82
2023/07/29 03:06:13;;;;;;;2.73;1.80;;;14.40;99.90;;;;;;2062264;28;20687;-84
2023/07/29 03:07:14;;;;;;;3.88;1.70;;;14.20;99.90;;;;;;2063084;28;20190;-83
2023/07/29 03:08:14;;;;;;;2.00;1.60;;;14.10;99.90;;;;;;2062777;28;20660;-83
2023/07/29 03:09:15;;;;;;;3.60;1.67;;;14.10;99.90;;;;;;2071400;28;20185;-84
2023/07/29 03:10:16;;;;;;;1.83;1.73;;;14.10;99.90;;;;;;2062820;28;20721;-83
2023/07/29 03:11:16;;;;;;;1.70;1.60;;;14.10;99.90;;;;;;2063463;28;20174;-84
2023/07/29 03:12:17;;;;;;;1.57;1.47;;;14.20;99.90;;;;;;2070572;28;22078;-83
2023/07/29 03:13:18;;;;;;;1.80;1.40;;;14.20;99.90;;;;;;2062526;28;20277;-83
2023/07/29 03:14:18;;;;;;;1.63;1.43;;;14.30;99.90;;;;;;2058972;28;20226;-82
2023/07/29 03:15:23;;;;;;;1.83;1.60;;;14.30;99.90;;;;;;2059154;28;20233;-82
2023/07/29 03:16:24;;;;;;;2.00;1.80;;;14.30;99.90;;;;;;2063669;28;20253;-84
2023/07/29 03:17:24;;;;;;;2.07;1.70;;;14.30;99.90;;;;;;2063018;28;20230;-83
2023/07/29 03:18:25;;;;;;;1.37;1.27;;;14.40;99.90;;;;;;2062932;28;20241;-83
2023/07/29 03:19:25;;;;;;;1.43;1.33;;;14.50;99.90;;;;;;2064552;28;20673;-83
2023/07/29 03:20:26;;;;;;;1.60;1.50;;;14.50;99.90;;;;;;2058377;28;20287;-83
2023/07/29 03:21:27;;;;;;;1.43;1.33;;;14.60;99.90;;;;;;2065743;28;20241;-84
2023/07/29 03:22:27;;;;;;;2.60;1.37;;;14.50;99.90;;;;;;2058086;28;20234;-82
2023/07/29 03:23:30;;;;;;;1.30;1.20;;;14.50;99.90;;;;;;2054479;28;20239;-84
2023/07/29 03:24:31;;;;;;;1.60;1.50;;;14.50;99.90;;;;;;2055598;28;20242;-84
2023/07/29 03:25:31;;;;;;;3.93;1.30;;;14.50;99.90;;;;;;2059448;28;20230;-82
2023/07/29 03:26:32;;;;;;;2.80;1.67;;;14.50;99.90;;;;;;2066801;28;20229;-83
2023/07/29 03:27:33;;;;;;;1.53;1.43;;;14.50;99.90;;;;;;2085003;28;20288;-82
2023/07/29 03:28:34;;;;;;;2.22;1.42;;;14.50;99.90;;;;;;2073008;28;20677;-82
2023/07/29 03:29:34;;;;;;;1.90;1.40;;;14.40;99.90;;;;;;2070592;28;20258;-82
2023/07/29 03:30:35;;;;;;;1.60;1.30;;;14.50;99.90;;;;;;2069660;28;20776;-83
2023/07/29 03:31:36;;;;;;;1.33;1.23;;;14.50;99.90;;;;;;2070374;28;20240;-82
2023/07/29 03:32:47;;;;;;;1.77;1.50;;;14.40;99.90;;;;;;2071645;28;20266;-82
2023/07/29 03:33:47;;;;;;;1.40;1.30;;;14.40;99.90;;;;;;2059547;28;20230;-82
2023/07/29 03:34:48;;;;;;;2.17;1.50;;;14.50;99.90;;;;;;2070682;28;20293;-82
2023/07/29 03:35:49;;;;;;;1.40;1.20;;;14.40;99.90;;;;;;2067324;28;20234;-84
2023/07/29 03:36:51;;;;;;;3.10;1.53;;;14.30;99.90;;;;;;2053766;28;20287;-83
2023/07/29 03:37:52;;;;;;;1.40;1.10;;;14.20;99.90;;;;;;2063538;28;20337;-82
2023/07/29 03:38:52;;;;;;;3.37;1.67;;;14.10;99.90;;;;;;2071412;28;20241;-84
2023/07/29 03:39:53;;;;;;;2.90;1.40;;;14.10;99.90;;;;;;2071592;28;20233;-83
2023/07/29 03:40:54;;;;;;;1.60;1.50;;;14.20;99.90;;;;;;2066885;28;20573;-82
2023/07/29 03:41:55;;;;;;;2.80;1.53;;;14.10;99.90;;;;;;2062081;28;20237;-83
2023/07/29 03:42:55;;;;;;;2.17;1.50;;;14.10;99.90;;;;;;2078951;28;20244;-83
2023/07/29 03:43:56;;;;;;;3.17;1.60;;;14.10;99.90;;;;;;2068188;28;20233;-83
2023/07/29 03:44:57;;;;;;;2.80;1.67;;;14.20;99.90;;;;;;2068493;28;20233;-83
2023/07/29 03:45:57;;;;;;;3.53;1.60;;;14.30;99.90;;;;;;2067193;28;20236;-83
2023/07/29 03:46:58;;;;;;;2.70;1.40;;;14.30;99.90;;;;;;2070695;28;20233;-84
2023/07/29 03:47:59;;;;;;;1.73;1.40;;;14.20;99.90;;;;;;2062056;28;20225;-82
2023/07/29 03:48:59;;;;;;;1.70;1.60;;;14.20;99.90;;;;;;2060909;28;20229;-82
2023/07/29 03:50:02;;;;;;;1.70;1.60;;;14.30;99.90;;;;;;2066761;28;20197;-82
2023/07/29 03:51:03;;;;;;;4.22;1.50;;;14.20;99.90;;;;;;2066690;28;20190;-83
2023/07/29 03:52:04;;;;;;;1.90;1.70;;;14.30;99.90;;;;;;2073885;28;20248;-85
2023/07/29 03:53:05;;;;;;;2.65;1.63;;;14.30;99.90;;;;;;2058723;28;20198;-83
2023/07/29 03:54:06;;;;;;;3.93;1.93;;;14.40;99.90;;;;;;2057923;28;20222;-83
2023/07/29 03:55:07;;;;;;;2.15;1.80;;;14.50;99.90;;;;;;2059293;28;20679;-84
2023/07/29 03:56:10;;;;;;;2.85;1.65;;;14.40;99.90;;;;;;2062726;28;20191;-82
2023/07/29 03:57:10;;;;;;;3.38;1.90;;;14.60;99.90;;;;;;2064577;28;20193;-84
2023/07/29 03:58:12;;;;;;;1.67;1.57;;;14.50;99.90;;;;;;2066439;28;20285;-83
2023/07/29 03:59:13;;;;;;;2.08;1.60;;;14.60;99.90;;;;;;2062741;28;20706;-83
2023/07/29 04:00:13;;;;;;;1.70;1.60;;;14.60;99.90;;;;;;2054114;28;20179;-82
2023/07/29 04:01:14;;;;;;;2.10;1.80;;;14.60;99.90;;;;;;2059390;28;20186;-81
2023/07/29 04:02:15;;;;;;;2.33;1.53;;;14.60;99.90;;;;;;2068543;28;20190;-82
2023/07/29 04:03:16;;;;;;;1.50;1.40;;;14.70;99.90;;;;;;2069878;28;20277;-82
2023/07/29 04:04:16;;;;;;;2.43;1.20;;;14.70;99.90;;;;;;2059739;28;20284;-81
2023/07/29 04:05:18;;;;;;;1.43;1.33;;;14.70;99.90;;;;;;2067396;28;21264;-82
2023/07/29 04:06:18;;;;;;;1.75;1.35;;;14.70;99.90;;;;;;2077947;28;20891;-82
2023/07/29 04:07:19;;;;;;;1.53;1.30;;;14.70;99.90;;;;;;2070206;28;20242;-81
2023/07/29 04:08:20;;;;;;;1.50;1.40;;;14.70;99.90;;;;;;2063111;28;20238;-83
2023/07/29 04:09:21;;;;;;;4.70;1.50;;;14.70;99.90;;;;;;2065579;28;20240;-83
2023/07/29 04:10:21;;;;;;;2.37;1.30;;;14.60;99.90;;;;;;2076853;28;20239;-83
2023/07/29 04:11:23;;;;;;;7.30;1.40;;;14.70;99.90;;;;;;2078093;28;20248;-83
2023/07/29 04:12:24;;;;;;;2.30;1.40;;;14.60;99.90;;;;;;2070787;28;20702;-83
2023/07/29 04:13:24;;;;;;;1.63;1.27;;;14.60;99.90;;;;;;2062130;28;20240;-83
2023/07/29 04:14:25;;;;;;;1.67;1.47;;;14.70;99.90;;;;;;2068297;28;20225;-83
2023/07/29 04:15:26;;;;;;;1.77;1.17;;;14.60;99.90;;;;;;2077144;28;20612;-84
2023/07/29 04:16:28;;;;;;;3.57;1.60;;;14.70;99.90;;;;;;2076602;28;20233;-83
2023/07/29 04:17:29;;;;;;;2.63;1.38;;;14.70;99.90;;;;;;2070407;28;20244;-83
2023/07/29 04:18:29;;;;;;;2.13;1.50;;;14.70;99.90;;;;;;2072755;28;20229;-83
2023/07/29 04:19:30;;;;;;;1.83;1.53;;;14.60;99.90;;;;;;2067893;28;20229;-82
2023/07/29 04:20:31;;;;;;;2.43;1.70;;;14.70;99.90;;;;;;2068406;28;20268;-83
2023/07/29 04:21:31;;;;;;;1.50;1.40;;;14.80;99.90;;;;;;2066571;28;20284;-83
2023/07/29 04:22:32;;;;;;;1.47;1.27;;;14.50;99.90;;;;;;2061942;28;20265;-83
2023/07/29 04:23:33;;;;;;;1.33;1.23;;;14.60;99.90;;;;;;2060953;28;20765;-82
2023/07/29 04:24:34;;;;;;;1.47;1.33;;;14.60;99.90;;;;;;2063364;28;20356;-82
2023/07/29 04:25:34;;;;;;;1.80;1.50;;;14.50;99.90;;;;;;2071900;28;20229;-84
2023/07/29 04:26:35;;;;;;;1.40;1.03;;;14.60;99.90;;;;;;2079651;28;20315;-83
2023/07/29 04:27:36;;;;;;;2.43;1.67;;;14.70;99.90;;;;;;2072414;28;20231;-84
2023/07/29 04:28:36;;;;;;;2.27;1.40;;;14.70;99.90;;;;;;2064024;28;20234;-83
2023/07/29 04:29:38;;;;;;;1.70;1.40;;;14.70;99.90;;;;;;2060505;28;20698;-82
2023/07/29 04:30:38;;;;;;;1.58;1.40;;;14.80;99.90;;;;;;2055849;28;20292;-82
2023/07/29 04:31:39;;;;;;;2.10;1.53;;;14.80;99.90;;;;;;2060307;28;20277;-82
2023/07/29 04:32:41;;;;;;;1.97;1.30;;;14.90;99.90;;;;;;2067849;28;20221;-83
2023/07/29 04:33:42;;;;;;;1.83;1.70;;;14.90;99.90;;;;;;2071011;28;20246;-84
2023/07/29 04:34:43;;;;;;;2.63;1.33;;;14.90;99.90;;;;;;2062931;28;20222;-83
2023/07/29 04:35:44;;;;;;;3.63;1.40;;;14.90;99.90;;;;;;2065628;28;20221;-82
2023/07/29 04:36:46;;;;;;;1.40;1.30;;;14.90;99.90;;;;;;2057576;28;20238;-82
2023/07/29 04:37:47;;;;;;;1.38;1.20;;;14.90;99.90;;;;;;2069207;28;20294;-82
2023/07/29 04:38:48;;;;;;;1.75;1.30;;;14.90;99.90;;;;;;2078850;28;20249;-83
2023/07/29 04:39:52;;;;;;;2.33;1.30;;;14.80;99.90;;;;;;2077501;28;20304;-84
2023/07/29 04:40:52;;;;;;;1.77;1.33;;;14.80;99.90;;;;;;2078494;28;20229;-85
2023/07/29 04:41:53;;;;;;;1.43;1.33;;;14.70;99.90;;;;;;2071758;28;20272;-82
2023/07/29 04:42:54;;;;;;;3.07;1.23;;;14.60;99.90;;;;;;2069158;28;20264;-83
2023/07/29 04:43:54;;;;;;;1.97;1.20;;;14.60;99.90;;;;;;2071921;28;20311;-81
2023/07/29 04:44:55;;;;;;;2.40;1.87;;;14.60;99.90;;;;;;2055602;28;20483;-82
2023/07/29 04:45:56;;;;;;;1.57;1.17;;;14.60;99.90;;;;;;2070961;28;20229;-83
2023/07/29 04:46:57;;;;;;;2.33;1.60;;;14.60;99.90;;;;;;2076163;28;20236;-82
2023/07/29 04:47:58;;;;;;;1.63;1.20;;;14.60;99.90;;;;;;2073468;28;20233;-83
2023/07/29 04:48:59;;;;;;;1.27;1.17;;;14.70;99.90;;;;;;2055325;28;20418;-83
2023/07/29 04:50:00;;;;;;;2.10;1.90;;;14.50;99.90;;;;;;2064163;28;20276;-83
2023/07/29 04:51:00;;;;;;;3.00;1.67;;;14.40;99.90;;;;;;2080790;28;20247;-83
2023/07/29 04:52:01;;;;;;;1.37;1.20;;;14.50;99.90;;;;;;2072056;28;20320;-82
2023/07/29 04:53:02;;;;;;;1.20;1.10;;;14.60;99.90;;;;;;2064025;28;20298;-82
2023/07/29 04:54:03;;;;;;;5.80;1.43;;;14.60;99.90;;;;;;2073165;28;20659;-82
2023/07/29 04:55:04;;;;;;;1.60;1.50;;;14.70;99.90;;;;;;2071296;28;20188;-83
2023/07/29 04:56:05;;;;;;;4.18;2.00;;;14.70;99.90;;;;;;2071132;28;20277;-83
2023/07/29 04:57:05;;;;;;;3.77;1.60;;;14.80;99.90;;;;;;2075477;28;20181;-82
2023/07/29 04:58:07;;;;;;;2.00;1.27;;;14.80;99.90;;;;;;2077900;28;20195;-83
2023/07/29 04:59:08;;;;;;;1.27;1.17;;;14.80;99.90;;;;;;2068906;28;20209;-82
2023/07/29 05:00:09;;;;;;;3.05;1.33;;;14.90;99.90;;;;;;2069818;28;20358;-83
2023/07/29 05:01:10;;;;;;;1.85;1.40;;;14.90;99.90;;;;;;2060318;28;20284;-83
2023/07/29 05:02:11;;;;;;;1.63;1.37;;;15.10;99.90;;;;;;2077575;28;20186;-83
2023/07/29 05:03:11;;;;;;;3.00;1.50;;;15.10;99.90;;;;;;2063879;28;20737;-83
2023/07/29 05:04:12;;;;;;;2.80;1.07;;;15.20;99.90;;;;;;2059800;28;20190;-83
2023/07/29 05:05:13;;;;;;;1.47;1.37;;;15.20;99.90;;;;;;2070331;28;20244;-81
2023/07/29 05:06:13;;;;;;;3.10;1.30;;;15.30;99.90;;;;;;2062468;28;20228;-83
2023/07/29 05:07:15;;;;;;;1.33;1.10;;;15.40;99.90;;;;;;2063520;28;20186;-82
2023/07/29 05:08:16;;;;;;;1.30;1.20;;;15.40;99.90;;;;;;2069051;28;20185;-82
2023/07/29 05:09:19;;;;;;;1.77;1.30;;;15.50;99.90;;;;;;2068155;28;20178;-82
2023/07/29 05:10:20;;;;;;;2.00;1.47;;;15.50;99.90;;;;;;2063462;28;20226;-82
2023/07/29 05:11:21;;;;;;;1.40;1.30;;;15.70;99.90;;;;;;2072393;28;20498;-82
2023/07/29 05:12:22;;;;;;;2.00;1.30;;;15.70;99.90;;;;;;2078350;28;20228;-82
2023/07/29 05:13:23;;;;;;;3.67;1.50;;;15.70;99.90;;;;;;2068063;28;20221;-81
2023/07/29 05:14:24;;;;;;;1.38;1.27;;;15.60;99.90;;;;;;2070762;28;21007;-82
2023/07/29 05:15:25;;;;;;;1.53;1.40;;;15.60;99.90;;;;;;2077505;28;20287;-83
2023/07/29 05:16:25;;;;;;;1.60;1.50;;;15.70;99.90;;;;;;2074763;28;20251;-83
2023/07/29 05:17:26;;;;;;;4.27;1.43;;;15.80;99.90;;;;;;2070748;28;20228;-83
2023/07/29 05:18:27;;;;;;;2.27;1.40;;;15.80;99.90;;;;;;2059173;28;20233;-83
2023/07/29 05:19:27;;;;;;;1.50;1.40;;;15.90;99.90;;;;;;2064069;28;20237;-83
2023/07/29 05:20:28;;;;;;;2.63;1.37;;;15.90;99.90;;;;;;2064112;28;20241;-83
2023/07/29 05:21:30;;;;;;;1.77;1.40;;;15.90;99.90;;;;;;2063074;28;20306;-83
2023/07/29 05:22:30;;;;;;;3.93;1.80;;;15.90;99.90;;;;;;2071750;28;20225;-83